Aviation Digital Data Service (ADDS)

Output produced by METARs form (0151 UTC 29 August 2016)
found at http://aviationweather.gov/adds/metars/
 
METAR text: KBFM 290053Z AUTO 36004KT 10SM CLR 24/24 A2998 RMK AO2 SLP151 T02440239
Conditions at: KBFM (MOBILE/BROOKLEY , AL, US) observed 0053 UTC 29 August 2016
Temperature: 24.4°C (76°F)
Dewpoint: 23.9°C (75°F) [RH = 97%]
Pressure (altimeter): 29.98 inches Hg (1015.3 mb)
[Sea-level pressure: 1015.1 mb]
Winds: from the N (360 degrees) at 5 MPH (4 knots; 2.1 m/s)
Visibility: 10 or more miles (16+ km)
Ceiling: at least 12,000 feet AGL
Clouds: sky clear below 12,000 feet AGL
Weather: automated observation with no human augmentation;
there may or may not be significant weather present at this time